Time;durP1;ratioP1;P1;durP2;ratioP2;P2;SDS_P1;SDS_P2;PMS_P1;PMS_P2;Temp;Humidity;BMP_temperature;BMP_pressure;BME280_temperature;BME280_humidity;BME280_pressure;Samples;Min_cycle;Max_cycle;Signal;HPM_P1;HPM_P2
2023/12/28 00:00:50;;;;;;;2.10;1.42;;;9.30;99.90;;;;;;5098981;27;20051;-68
2023/12/28 00:03:15;;;;;;;3.88;2.33;;;9.30;99.90;;;;;;5100732;27;20035;-68
2023/12/28 00:05:41;;;;;;;3.75;2.03;;;9.30;99.90;;;;;;5100883;27;20360;-68
2023/12/28 00:08:06;;;;;;;2.63;1.52;;;9.40;99.90;;;;;;5105814;27;20036;-68
2023/12/28 00:10:32;;;;;;;4.10;1.70;;;9.40;99.90;;;;;;5099252;27;20043;-68
2023/12/28 00:12:58;;;;;;;2.88;1.60;;;9.40;99.90;;;;;;5101456;27;20047;-68
2023/12/28 00:15:23;;;;;;;5.55;1.92;;;9.40;99.90;;;;;;5105817;27;20054;-68
2023/12/28 00:17:49;;;;;;;2.05;1.25;;;9.40;99.90;;;;;;5101415;27;21815;-68
2023/12/28 00:20:15;;;;;;;3.38;1.42;;;9.40;99.90;;;;;;5102324;27;20028;-68
2023/12/28 00:22:41;;;;;;;2.95;1.52;;;9.40;99.90;;;;;;5130674;27;20036;-68
2023/12/28 00:25:07;;;;;;;3.58;1.88;;;9.40;99.90;;;;;;5086643;28;20034;-68
2023/12/28 00:27:35;;;;;;;3.38;1.50;;;9.50;99.90;;;;;;5099486;27;20326;-68
2023/12/28 00:30:01;;;;;;;2.50;1.48;;;9.40;99.90;;;;;;5098946;27;20051;-68
2023/12/28 00:32:27;;;;;;;2.95;1.50;;;9.40;99.90;;;;;;5103014;27;20039;-68
2023/12/28 00:34:52;;;;;;;5.00;2.25;;;9.40;99.90;;;;;;5135528;27;20043;-68
2023/12/28 00:37:18;;;;;;;4.28;2.10;;;9.40;99.90;;;;;;5119217;27;20126;-68
2023/12/28 00:39:46;;;;;;;2.80;1.50;;;9.40;99.90;;;;;;5099483;27;20385;-69
2023/12/28 00:42:13;;;;;;;6.35;1.58;;;9.40;99.90;;;;;;5135182;27;20051;-68
2023/12/28 00:44:38;;;;;;;4.90;2.03;;;9.40;99.90;;;;;;5129805;27;20039;-68
2023/12/28 00:47:06;;;;;;;3.53;1.75;;;9.40;99.90;;;;;;5104010;27;20692;-68
2023/12/28 00:49:32;;;;;;;4.88;1.63;;;9.40;99.90;;;;;;5135323;27;20043;-69
2023/12/28 00:51:57;;;;;;;3.38;1.77;;;9.40;99.90;;;;;;5098788;27;20772;-69
2023/12/28 00:54:23;;;;;;;5.85;2.42;;;9.40;99.90;;;;;;5135676;27;20059;-68
2023/12/28 00:56:48;;;;;;;4.80;2.00;;;9.40;99.90;;;;;;5098827;27;20047;-68
2023/12/28 00:59:14;;;;;;;4.55;1.30;;;9.40;99.90;;;;;;5097561;28;20506;-68
2023/12/28 01:01:40;;;;;;;3.25;1.92;;;9.40;99.90;;;;;;5101312;27;20035;-68
2023/12/28 01:04:05;;;;;;;4.00;1.75;;;9.40;99.90;;;;;;5099376;27;20040;-68
2023/12/28 01:06:31;;;;;;;4.13;1.70;;;9.40;99.90;;;;;;5097899;27;20556;-68
2023/12/28 01:08:57;;;;;;;3.75;1.67;;;9.40;99.90;;;;;;5098772;27;20066;-68
2023/12/28 01:11:22;;;;;;;2.75;1.80;;;9.40;99.90;;;;;;5098976;27;20078;-68
2023/12/28 01:13:48;;;;;;;3.55;1.95;;;9.30;99.90;;;;;;5099666;27;20044;-68
2023/12/28 01:16:14;;;;;;;3.83;1.70;;;9.40;99.90;;;;;;5097425;27;20179;-68
2023/12/28 01:18:40;;;;;;;5.03;1.80;;;9.30;99.90;;;;;;5099185;27;20036;-68
2023/12/28 01:21:05;;;;;;;4.80;1.30;;;9.40;99.90;;;;;;5098132;27;20040;-68
2023/12/28 01:23:32;;;;;;;5.03;2.30;;;9.20;99.90;;;;;;5097382;28;20038;-68
2023/12/28 01:25:59;;;;;;;3.50;1.85;;;9.20;99.90;;;;;;5132768;27;20035;-68
2023/12/28 01:28:24;;;;;;;6.15;1.75;;;9.20;99.90;;;;;;5099046;28;20059;-69
2023/12/28 01:30:50;;;;;;;5.47;1.98;;;9.20;99.90;;;;;;5098440;27;20040;-68
2023/12/28 01:33:16;;;;;;;5.97;2.45;;;9.10;99.90;;;;;;5134570;27;20046;-69
2023/12/28 01:35:42;;;;;;;7.78;2.28;;;9.20;99.90;;;;;;5133916;27;20482;-68
2023/12/28 01:38:07;;;;;;;5.05;1.75;;;9.20;99.90;;;;;;5135866;27;20092;-68
2023/12/28 01:40:33;;;;;;;7.85;2.90;;;9.10;99.90;;;;;;5135618;27;20067;-68
2023/12/28 01:42:59;;;;;;;6.45;1.77;;;9.20;99.90;;;;;;5096441;28;20038;-68
2023/12/28 01:45:24;;;;;;;6.22;2.28;;;9.20;99.90;;;;;;5097671;28;20580;-68
2023/12/28 01:47:52;;;;;;;5.95;1.65;;;9.20;99.90;;;;;;5132639;27;20040;-68
2023/12/28 01:50:18;;;;;;;7.28;1.98;;;9.10;99.90;;;;;;5097983;28;20047;-68
2023/12/28 01:52:45;;;;;;;9.10;2.25;;;9.20;99.90;;;;;;5098427;27;20160;-68
2023/12/28 01:55:12;;;;;;;7.18;2.15;;;9.20;99.90;;;;;;5097312;27;20100;-68
2023/12/28 01:57:38;;;;;;;5.55;2.17;;;9.20;99.90;;;;;;5102736;27;20046;-68
2023/12/28 02:00:04;;;;;;;5.03;2.10;;;9.30;99.90;;;;;;5097669;28;20040;-68
2023/12/28 02:02:32;;;;;;;7.93;2.28;;;9.20;99.90;;;;;;5132891;27;20043;-68
2023/12/28 02:04:58;;;;;;;6.65;1.50;;;9.30;99.90;;;;;;5097154;28;20122;-68
2023/12/28 02:07:25;;;;;;;9.25;2.95;;;9.30;99.90;;;;;;5095069;28;20948;-68
2023/12/28 02:09:50;;;;;;;8.15;1.95;;;9.30;99.90;;;;;;5099122;28;20073;-68
2023/12/28 02:12:16;;;;;;;9.05;2.33;;;9.30;99.90;;;;;;5100337;28;20077;-68
2023/12/28 02:14:42;;;;;;;8.38;2.05;;;9.30;99.90;;;;;;5099295;28;20036;-68
2023/12/28 02:17:15;;;;;;;7.28;1.50;;;9.40;99.90;;;;;;5132955;27;20046;-68
2023/12/28 02:19:50;;;;;;;9.50;2.13;;;9.40;99.90;;;;;;5094894;28;20102;-68
2023/12/28 02:22:16;;;;;;;5.53;1.92;;;9.40;99.90;;;;;;5114823;27;20081;-68
2023/12/28 02:25:11;;;;;;;8.00;1.70;;;9.40;99.90;;;;;;5098081;28;20076;-68
2023/12/28 02:27:43;;;;;;;6.82;2.15;;;9.50;99.90;;;;;;5091319;28;20127;-68
2023/12/28 02:30:10;;;;;;;8.48;1.90;;;9.50;99.90;;;;;;5099722;28;20499;-68
2023/12/28 02:33:13;;;;;;;10.20;1.92;;;9.50;99.90;;;;;;5101732;28;20493;-68
2023/12/28 02:35:50;;;;;;;9.88;2.15;;;9.50;99.90;;;;;;5102440;27;20211;-68
2023/12/28 02:38:17;;;;;;;11.77;1.83;;;9.60;99.90;;;;;;5101896;27;20181;-68
2023/12/28 02:40:44;;;;;;;10.43;1.90;;;9.50;99.90;;;;;;5100124;27;20055;-68
2023/12/28 02:43:10;;;;;;;9.18;1.73;;;9.60;99.90;;;;;;5101637;27;20088;-68
2023/12/28 02:45:37;;;;;;;8.95;2.33;;;9.60;99.90;;;;;;5104177;27;20031;-68
2023/12/28 02:48:04;;;;;;;6.82;1.60;;;9.70;99.90;;;;;;5135615;27;20077;-68
2023/12/28 02:50:30;;;;;;;10.10;3.10;;;9.80;99.90;;;;;;5102851;27;20075;-68
2023/12/28 02:53:00;;;;;;;10.10;2.33;;;9.90;99.90;;;;;;5100378;27;20467;-68
2023/12/28 02:55:25;;;;;;;8.48;2.05;;;9.90;99.90;;;;;;5103981;27;20040;-68
2023/12/28 02:57:59;;;;;;;8.48;1.70;;;9.90;99.90;;;;;;5101199;27;20063;-68
2023/12/28 03:00:24;;;;;;;8.50;1.90;;;9.90;99.90;;;;;;5103018;27;20540;-68
2023/12/28 03:02:50;;;;;;;7.63;1.33;;;10.00;99.90;;;;;;5104166;27;20043;-68
2023/12/28 03:05:16;;;;;;;11.23;1.88;;;10.00;99.90;;;;;;5105417;27;20851;-68
2023/12/28 03:07:42;;;;;;;8.90;1.95;;;10.00;99.90;;;;;;5135134;27;20071;-68
2023/12/28 03:10:09;;;;;;;8.02;1.75;;;10.00;99.90;;;;;;5136892;27;20046;-68
2023/12/28 03:12:35;;;;;;;9.52;2.00;;;10.00;99.90;;;;;;5102263;27;20114;-68
2023/12/28 03:15:01;;;;;;;7.05;1.52;;;10.00;99.90;;;;;;5105533;27;20039;-68
2023/12/28 03:17:28;;;;;;;10.15;1.98;;;10.10;99.90;;;;;;5134732;27;20044;-68
2023/12/28 03:19:54;;;;;;;7.15;1.88;;;10.10;99.90;;;;;;5099456;27;20048;-68
2023/12/28 03:22:20;;;;;;;10.50;1.33;;;10.10;99.90;;;;;;5101199;27;20039;-68
2023/12/28 03:24:47;;;;;;;8.85;1.63;;;10.10;99.90;;;;;;5138385;27;20042;-68
2023/12/28 03:27:12;;;;;;;9.23;1.65;;;10.30;99.90;;;;;;5098660;27;20040;-68
2023/12/28 03:29:38;;;;;;;6.50;1.85;;;10.10;99.90;;;;;;5100706;27;21007;-68
2023/12/28 03:32:04;;;;;;;4.32;1.30;;;10.10;99.90;;;;;;5105363;27;20059;-68
2023/12/28 03:34:30;;;;;;;6.82;1.83;;;10.10;99.90;;;;;;5104337;27;20040;-68
2023/12/28 03:36:57;;;;;;;5.53;1.65;;;10.10;99.90;;;;;;5099843;27;20120;-68
2023/12/28 03:39:23;;;;;;;7.93;1.75;;;10.10;99.90;;;;;;5106119;27;20046;-68
2023/12/28 03:41:49;;;;;;;4.15;1.38;;;10.20;99.90;;;;;;5100791;27;20092;-68
2023/12/28 03:44:14;;;;;;;12.75;2.17;;;10.20;99.90;;;;;;5101242;27;20043;-68
2023/12/28 03:46:40;;;;;;;7.50;1.55;;;10.20;99.90;;;;;;5103072;27;20036;-68
2023/12/28 03:49:06;;;;;;;7.78;1.77;;;10.30;99.90;;;;;;5101618;27;20092;-68
2023/12/28 03:51:31;;;;;;;8.15;1.92;;;10.30;99.90;;;;;;5101849;27;20036;-68
2023/12/28 03:53:57;;;;;;;7.82;1.23;;;10.20;99.90;;;;;;5099935;27;20043;-68
2023/12/28 03:56:27;;;;;;;8.32;2.47;;;10.30;99.90;;;;;;5102289;27;20512;-68
2023/12/28 03:58:53;;;;;;;10.23;1.23;;;10.30;99.90;;;;;;5136365;27;20102;-68
2023/12/28 04:01:20;;;;;;;12.38;1.70;;;10.20;99.90;;;;;;5135031;27;20109;-68
2023/12/28 04:03:47;;;;;;;7.65;1.88;;;10.20;99.90;;;;;;5105923;27;20032;-68
2023/12/28 04:06:13;;;;;;;6.07;1.67;;;10.20;99.90;;;;;;5101084;27;20485;-68
2023/12/28 04:08:40;;;;;;;5.20;1.83;;;10.20;99.90;;;;;;5097326;27;20120;-68
2023/12/28 04:11:05;;;;;;;9.15;1.33;;;10.20;99.90;;;;;;5133260;27;20051;-68
2023/12/28 04:13:31;;;;;;;10.65;1.83;;;10.20;99.90;;;;;;5090503;28;20097;-68
2023/12/28 04:15:56;;;;;;;6.53;1.02;;;10.30;99.90;;;;;;5100633;27;20370;-68
2023/12/28 04:18:22;;;;;;;8.15;2.15;;;10.30;99.90;;;;;;5099472;27;20078;-68
2023/12/28 04:20:48;;;;;;;7.65;1.98;;;10.40;99.90;;;;;;5101112;27;20028;-68
2023/12/28 04:23:14;;;;;;;9.25;1.92;;;10.30;99.90;;;;;;5101368;27;20053;-68
2023/12/28 04:25:40;;;;;;;10.63;1.75;;;10.40;99.90;;;;;;5102779;28;20036;-68
2023/12/28 04:28:06;;;;;;;6.10;1.35;;;10.40;99.90;;;;;;5099403;27;20121;-68
2023/12/28 04:30:32;;;;;;;9.10;1.23;;;10.30;99.90;;;;;;5101918;27;20046;-68
2023/12/28 04:32:58;;;;;;;6.28;1.17;;;10.30;99.90;;;;;;5103536;27;20028;-68
2023/12/28 04:35:23;;;;;;;8.05;1.85;;;10.40;99.90;;;;;;5103467;27;20043;-68
2023/12/28 04:37:49;;;;;;;9.80;1.85;;;10.40;99.90;;;;;;5099535;27;20093;-68
2023/12/28 04:40:15;;;;;;;9.18;1.50;;;10.50;99.90;;;;;;5098190;27;20055;-68
2023/12/28 04:42:41;;;;;;;8.30;2.33;;;10.40;99.90;;;;;;5133589;27;20035;-68
2023/12/28 04:45:07;;;;;;;12.07;1.92;;;10.40;99.90;;;;;;5100296;27;20548;-68
2023/12/28 04:47:33;;;;;;;8.88;1.20;;;10.50;99.90;;;;;;5099255;27;20063;-68
2023/12/28 04:49:58;;;;;;;10.07;2.28;;;10.40;99.90;;;;;;5100148;27;20434;-68
2023/12/28 04:52:24;;;;;;;7.25;1.52;;;10.40;99.90;;;;;;5101580;27;20197;-68
2023/12/28 04:54:50;;;;;;;9.68;1.75;;;10.50;99.90;;;;;;5102787;27;20040;-68
2023/12/28 04:57:16;;;;;;;13.32;2.50;;;10.50;99.90;;;;;;5098154;27;20050;-68
2023/12/28 04:59:42;;;;;;;10.73;2.15;;;10.50;99.90;;;;;;5101379;27;20393;-68
2023/12/28 05:02:08;;;;;;;10.90;1.75;;;10.50;99.90;;;;;;5098383;27;20046;-68
2023/12/28 05:04:38;;;;;;;8.80;1.63;;;10.50;99.90;;;;;;5103201;27;20046;-68
2023/12/28 05:07:04;;;;;;;12.32;2.20;;;10.50;99.90;;;;;;5100347;27;20043;-68
2023/12/28 05:09:29;;;;;;;8.85;1.40;;;10.50;99.90;;;;;;5132942;27;20040;-68
2023/12/28 05:11:55;;;;;;;12.65;2.50;;;10.40;99.90;;;;;;5132572;27;20462;-68
2023/12/28 05:14:21;;;;;;;5.22;1.35;;;10.40;99.90;;;;;;5097383;27;20048;-68
2023/12/28 05:16:46;;;;;;;9.23;1.52;;;10.40;99.90;;;;;;5111774;27;20773;-68
2023/12/28 05:19:12;;;;;;;11.82;2.10;;;10.50;99.90;;;;;;5097486;27;20038;-68
2023/12/28 05:21:38;;;;;;;10.90;2.10;;;10.50;99.90;;;;;;5100834;28;20187;-68
2023/12/28 05:24:04;;;;;;;14.60;2.78;;;10.50;99.90;;;;;;5102703;27;20089;-68
2023/12/28 05:26:30;;;;;;;6.05;1.55;;;10.50;99.90;;;;;;5099948;27;20044;-68
2023/12/28 05:28:56;;;;;;;9.93;2.20;;;10.50;99.90;;;;;;5095941;27;20036;-68
2023/12/28 05:31:22;;;;;;;12.93;2.67;;;10.50;99.90;;;;;;5099023;27;20051;-68
2023/12/28 05:33:47;;;;;;;9.10;1.42;;;10.60;99.90;;;;;;5102712;27;20085;-68
2023/12/28 05:36:13;;;;;;;9.30;1.63;;;10.60;99.90;;;;;;5098232;27;20040;-68
2023/12/28 05:38:38;;;;;;;10.63;2.10;;;10.50;99.90;;;;;;5082432;28;20036;-68
2023/12/28 05:41:04;;;;;;;9.32;1.77;;;10.50;99.90;;;;;;5101791;27;20114;-68
2023/12/28 05:43:30;;;;;;;8.77;2.28;;;10.60;99.90;;;;;;5096835;27;20046;-68
2023/12/28 05:45:56;;;;;;;15.15;2.55;;;10.60;99.90;;;;;;5096862;28;20058;-68
2023/12/28 05:48:21;;;;;;;11.52;2.25;;;10.60;99.90;;;;;;5085378;28;20105;-68
2023/12/28 05:50:47;;;;;;;7.88;1.77;;;10.60;99.90;;;;;;5080597;28;20587;-68
2023/12/28 05:53:14;;;;;;;11.35;2.00;;;10.60;99.90;;;;;;5099505;28;20051;-68
2023/12/28 05:55:41;;;;;;;11.85;1.60;;;10.60;99.90;;;;;;5100067;27;20047;-68
2023/12/28 05:58:06;;;;;;;9.82;1.60;;;10.60;99.90;;;;;;5099750;28;20047;-68
2023/12/28 06:00:32;;;;;;;12.20;2.08;;;10.60;99.90;;;;;;5129340;27;20035;-68
2023/12/28 06:02:58;;;;;;;6.68;1.42;;;10.60;99.90;;;;;;5097897;28;20020;-68
2023/12/28 06:05:24;;;;;;;9.95;2.25;;;10.60;99.90;;;;;;5131991;27;20039;-68
2023/12/28 06:07:49;;;;;;;16.65;3.30;;;10.60;99.90;;;;;;5100719;28;20044;-68
2023/12/28 06:10:15;;;;;;;13.23;2.38;;;10.60;99.90;;;;;;5097360;27;20393;-68
2023/12/28 06:12:41;;;;;;;12.15;2.28;;;10.60;99.90;;;;;;5138206;27;20086;-68
2023/12/28 06:15:07;;;;;;;11.35;1.90;;;10.70;99.90;;;;;;5100065;28;20052;-68
2023/12/28 06:17:33;;;;;;;12.02;2.42;;;10.60;99.90;;;;;;5100154;27;20040;-68
2023/12/28 06:19:59;;;;;;;10.40;2.25;;;10.60;99.90;;;;;;5104131;27;20172;-68
2023/12/28 06:22:27;;;;;;;15.30;2.30;;;10.60;99.90;;;;;;5103912;27;21038;-68
2023/12/28 06:24:54;;;;;;;11.60;2.90;;;10.60;99.90;;;;;;5103371;27;20047;-68
2023/12/28 06:27:20;;;;;;;11.82;1.70;;;10.60;99.90;;;;;;5103292;27;20036;-68
2023/12/28 06:29:45;;;;;;;9.68;2.05;;;10.60;99.90;;;;;;5101977;27;20104;-68
2023/12/28 06:32:11;;;;;;;10.60;3.17;;;10.60;99.90;;;;;;5107432;28;20418;-68
2023/12/28 06:34:36;;;;;;;9.75;2.50;;;10.60;99.90;;;;;;5101224;27;20055;-68
2023/12/28 06:37:02;;;;;;;9.82;2.03;;;10.60;99.90;;;;;;5104621;27;20104;-68
2023/12/28 06:39:28;;;;;;;8.90;1.88;;;10.50;99.90;;;;;;5104059;27;20072;-68
2023/12/28 06:41:53;;;;;;;12.05;3.35;;;10.70;99.90;;;;;;5101774;27;20040;-67
2023/12/28 06:44:19;;;;;;;12.63;2.20;;;10.60;99.90;;;;;;5102739;27;20127;-68
2023/12/28 06:46:45;;;;;;;9.85;1.85;;;10.60;99.90;;;;;;5100768;27;20044;-68
2023/12/28 06:49:10;;;;;;;13.38;3.00;;;10.60;99.90;;;;;;5102627;28;20032;-67
2023/12/28 06:51:37;;;;;;;12.30;2.05;;;10.60;99.90;;;;;;5099275;27;20031;-68
2023/12/28 06:54:02;;;;;;;9.93;2.17;;;10.50;99.90;;;;;;5102187;27;20116;-68
2023/12/28 06:56:28;;;;;;;7.45;1.20;;;10.60;99.90;;;;;;5103374;27;21860;-68
2023/12/28 06:58:54;;;;;;;15.20;2.22;;;10.60;99.90;;;;;;5101142;27;20047;-68
2023/12/28 07:01:19;;;;;;;8.68;1.63;;;11.00;99.90;;;;;;5101530;27;20046;-68
2023/12/28 07:03:45;;;;;;;13.20;2.80;;;10.70;99.90;;;;;;5105108;27;20035;-68
2023/12/28 07:06:13;;;;;;;17.40;3.72;;;10.60;99.90;;;;;;5105652;27;20032;-68
2023/12/28 07:08:38;;;;;;;8.77;2.55;;;10.60;99.90;;;;;;5100594;27;20043;-68
2023/12/28 07:11:04;;;;;;;12.57;2.45;;;10.70;99.90;;;;;;5101868;28;20113;-68
2023/12/28 07:13:30;;;;;;;13.35;2.20;;;10.80;99.90;;;;;;5137391;27;20054;-68
2023/12/28 07:15:56;;;;;;;13.45;2.47;;;10.70;99.90;;;;;;5101515;27;20078;-68
2023/12/28 07:18:21;;;;;;;14.70;2.30;;;10.80;99.90;;;;;;5091137;28;20051;-68
2023/12/28 07:20:48;;;;;;;12.43;2.17;;;10.80;99.90;;;;;;5100085;27;20122;-68
2023/12/28 07:23:14;;;;;;;16.05;2.42;;;10.80;99.90;;;;;;5104959;27;20028;-68
2023/12/28 07:25:40;;;;;;;14.80;2.63;;;10.80;99.90;;;;;;5102542;27;20035;-68
2023/12/28 07:28:06;;;;;;;17.50;3.63;;;10.90;99.90;;;;;;5104122;27;20038;-67
2023/12/28 07:30:32;;;;;;;16.73;2.65;;;10.90;99.90;;;;;;5103831;27;20059;-68
2023/12/28 07:32:58;;;;;;;18.23;3.30;;;10.80;99.90;;;;;;5099934;27;20046;-68
2023/12/28 07:35:23;;;;;;;13.15;2.22;;;10.90;99.90;;;;;;5105030;27;20119;-68
2023/12/28 07:37:49;;;;;;;14.63;2.47;;;10.90;99.90;;;;;;5100944;27;20431;-68
2023/12/28 07:40:15;;;;;;;13.95;2.85;;;10.80;99.90;;;;;;5117242;27;20130;-68
2023/12/28 07:42:41;;;;;;;15.10;2.65;;;10.80;99.90;;;;;;5132945;27;20406;-68
2023/12/28 07:45:07;;;;;;;12.20;2.17;;;10.80;99.90;;;;;;5101357;27;20071;-68
2023/12/28 07:47:33;;;;;;;14.50;2.45;;;10.80;99.90;;;;;;5106154;27;20039;-68
2023/12/28 07:50:00;;;;;;;12.18;2.17;;;10.80;99.90;;;;;;5101827;27;20185;-68
2023/12/28 07:52:26;;;;;;;13.93;2.60;;;10.80;99.90;;;;;;5099322;27;20118;-68
2023/12/28 07:54:52;;;;;;;18.50;3.47;;;10.80;99.90;;;;;;5100223;27;20184;-68
2023/12/28 07:57:18;;;;;;;16.33;2.53;;;10.70;99.90;;;;;;5100555;27;20093;-68
2023/12/28 07:59:44;;;;;;;15.50;3.35;;;10.80;99.90;;;;;;5098229;27;20040;-68
2023/12/28 08:02:09;;;;;;;13.18;3.05;;;11.00;99.90;;;;;;5103661;27;20120;-68
2023/12/28 08:04:35;;;;;;;16.98;3.53;;;10.70;99.90;;;;;;5135344;27;20043;-68
2023/12/28 08:07:00;;;;;;;17.45;3.35;;;10.70;99.90;;;;;;5104467;27;20038;-68
2023/12/28 08:09:26;;;;;;;18.13;3.17;;;10.70;99.90;;;;;;5136160;27;20055;-68
2023/12/28 08:11:52;;;;;;;14.60;2.67;;;10.70;99.90;;;;;;5100850;28;20039;-68
2023/12/28 08:14:19;;;;;;;13.52;2.47;;;10.70;99.90;;;;;;5104167;28;20500;-68
2023/12/28 08:16:44;;;;;;;18.55;3.30;;;10.80;99.90;;;;;;5132929;27;20118;-68
2023/12/28 08:19:11;;;;;;;18.48;3.25;;;10.80;99.90;;;;;;5100782;28;20500;-68
2023/12/28 08:21:36;;;;;;;18.02;3.15;;;10.80;99.90;;;;;;5099562;27;20084;-68
2023/12/28 08:24:02;;;;;;;14.30;2.72;;;10.80;99.90;;;;;;5102150;28;20115;-68
2023/12/28 08:26:28;;;;;;;21.02;3.65;;;10.80;99.90;;;;;;5102786;27;20040;-68
2023/12/28 08:28:54;;;;;;;16.88;2.97;;;10.80;99.90;;;;;;5101818;27;20087;-68
2023/12/28 08:31:19;;;;;;;18.55;4.18;;;10.70;99.90;;;;;;5102154;27;20039;-68
2023/12/28 08:33:45;;;;;;;17.52;3.13;;;10.80;99.90;;;;;;5100728;28;20057;-68
2023/12/28 08:36:11;;;;;;;22.90;4.93;;;10.70;99.90;;;;;;5103463;28;20489;-68
2023/12/28 08:38:37;;;;;;;17.17;3.13;;;10.80;99.90;;;;;;5100332;27;20044;-68
2023/12/28 08:41:08;;;;;;;24.02;3.70;;;10.70;99.90;;;;;;5101211;28;20134;-68
2023/12/28 08:43:35;;;;;;;31.83;4.30;;;10.80;99.90;;;;;;5103911;28;20107;-68
2023/12/28 08:46:00;;;;;;;20.17;4.07;;;10.70;99.90;;;;;;5133939;27;20481;-68
2023/12/28 08:48:26;;;;;;;21.33;3.55;;;10.80;99.90;;;;;;5101346;27;20134;-68
2023/12/28 08:50:52;;;;;;;16.60;3.85;;;10.80;99.90;;;;;;5104298;28;20453;-68
2023/12/28 08:53:17;;;;;;;22.25;4.57;;;10.70;99.90;;;;;;5132845;27;20037;-68
2023/12/28 08:55:43;;;;;;;19.95;4.43;;;10.80;99.90;;;;;;5104538;28;20067;-68
2023/12/28 08:58:09;;;;;;;22.23;3.88;;;10.80;99.90;;;;;;5100606;28;20055;-67
2023/12/28 09:00:34;;;;;;;17.88;4.03;;;10.80;99.90;;;;;;5100190;28;20355;-67
2023/12/28 09:03:00;;;;;;;19.63;3.60;;;10.80;99.90;;;;;;5103534;27;20038;-68
2023/12/28 09:05:25;;;;;;;19.85;3.10;;;10.80;99.90;;;;;;5103268;27;20069;-68
2023/12/28 09:07:51;;;;;;;20.17;3.63;;;10.80;99.90;;;;;;5104665;28;20032;-68
2023/12/28 09:10:16;;;;;;;20.75;3.85;;;10.80;99.90;;;;;;5131645;27;20043;-68
2023/12/28 09:12:42;;;;;;;19.75;2.92;;;10.80;99.90;;;;;;5100474;28;20095;-68
2023/12/28 09:15:08;;;;;;;12.90;2.58;;;10.70;99.90;;;;;;5098358;28;20917;-68
2023/12/28 09:17:35;;;;;;;14.48;3.67;;;10.80;99.90;;;;;;5100993;27;20055;-68
2023/12/28 09:20:06;;;;;;;17.05;3.45;;;10.80;99.90;;;;;;5099332;28;20499;-68
2023/12/28 09:22:33;;;;;;;13.18;2.42;;;10.90;99.90;;;;;;5100519;27;20558;-67
2023/12/28 09:24:59;;;;;;;21.75;4.18;;;10.80;99.90;;;;;;5100727;27;20427;-67
2023/12/28 09:27:25;;;;;;;17.17;3.28;;;10.80;99.90;;;;;;5129839;27;20043;-67
2023/12/28 09:29:50;;;;;;;23.85;4.55;;;10.90;99.90;;;;;;5114101;27;20044;-68
2023/12/28 09:32:17;;;;;;;20.00;3.53;;;10.90;99.90;;;;;;5135649;27;20490;-68
2023/12/28 09:34:42;;;;;;;23.60;5.25;;;10.90;99.90;;;;;;5133175;27;20039;-68
2023/12/28 09:37:08;;;;;;;19.02;3.10;;;10.90;99.90;;;;;;5102190;27;20539;-68
2023/12/28 09:39:34;;;;;;;14.98;3.05;;;10.90;99.90;;;;;;5130152;27;20066;-68
2023/12/28 09:42:16;;;;;;;23.85;3.72;;;11.00;99.90;;;;;;5134448;27;20032;-68
2023/12/28 09:44:43;;;;;;;15.70;2.90;;;10.90;99.90;;;;;;5101597;27;20047;-68
2023/12/28 09:47:12;;;;;;;17.63;3.15;;;10.90;99.90;;;;;;5099004;28;20074;-69
2023/12/28 09:49:40;;;;;;;18.17;3.33;;;10.90;99.90;;;;;;5102999;28;20039;-69
2023/12/28 09:52:06;;;;;;;14.30;3.25;;;10.90;99.90;;;;;;5099339;28;20047;-69
2023/12/28 09:54:32;;;;;;;19.67;3.90;;;11.00;99.90;;;;;;5103111;27;20045;-68
2023/12/28 09:56:58;;;;;;;17.73;3.53;;;11.00;99.90;;;;;;5105938;28;20098;-68
2023/12/28 09:59:26;;;;;;;17.42;4.20;;;11.00;99.90;;;;;;5102098;28;20044;-68
2023/12/28 10:01:54;;;;;;;22.35;3.75;;;11.00;99.90;;;;;;5100047;28;20023;-68
2023/12/28 10:04:21;;;;;;;21.45;3.60;;;11.00;99.90;;;;;;5102219;28;20477;-68
2023/12/28 10:06:47;;;;;;;20.30;3.85;;;11.00;99.90;;;;;;5099370;27;20122;-68
2023/12/28 10:09:13;;;;;;;17.35;2.40;;;11.00;99.90;;;;;;5099453;28;20092;-68
2023/12/28 10:11:38;;;;;;;17.80;4.25;;;11.00;99.90;;;;;;5098772;27;20484;-68
2023/12/28 10:14:04;;;;;;;12.68;2.65;;;11.00;99.90;;;;;;5098468;28;20344;-68
2023/12/28 10:16:30;;;;;;;21.20;4.28;;;11.00;99.90;;;;;;5135579;27;20063;-68
2023/12/28 10:18:59;;;;;;;15.95;3.85;;;11.10;99.90;;;;;;5099263;28;20035;-68
2023/12/28 10:21:25;;;;;;;14.50;3.08;;;11.10;99.90;;;;;;5100750;28;20405;-68
2023/12/28 10:23:50;;;;;;;11.00;2.50;;;11.10;99.90;;;;;;5102863;28;20036;-68
2023/12/28 10:26:18;;;;;;;11.23;2.45;;;11.20;99.90;;;;;;5083269;28;20035;-69
2023/12/28 10:28:44;;;;;;;17.13;3.90;;;11.10;99.90;;;;;;5088136;28;20043;-68
2023/12/28 10:31:10;;;;;;;22.52;3.72;;;11.10;99.90;;;;;;5099510;27;20036;-68
2023/12/28 10:33:39;;;;;;;16.67;3.72;;;11.10;99.90;;;;;;5100879;28;20036;-68
2023/12/28 10:36:08;;;;;;;16.25;4.40;;;11.20;99.90;;;;;;5100282;28;20044;-69
2023/12/28 10:38:36;;;;;;;20.50;3.63;;;11.20;99.90;;;;;;5095790;28;20171;-68
2023/12/28 10:41:06;;;;;;;12.20;3.30;;;11.20;99.90;;;;;;5102812;28;20035;-68
2023/12/28 10:43:41;;;;;;;15.02;3.50;;;11.20;99.90;;;;;;5097671;28;20055;-69
2023/12/28 10:46:09;;;;;;;14.23;2.67;;;11.20;99.90;;;;;;5099519;28;20428;-68
2023/12/28 10:48:41;;;;;;;17.10;3.60;;;11.20;99.90;;;;;;5099890;28;20048;-68
2023/12/28 10:51:10;;;;;;;17.42;2.97;;;11.20;99.90;;;;;;5099486;28;20036;-68
2023/12/28 10:53:48;;;;;;;18.23;4.18;;;11.20;99.90;;;;;;5099199;28;20047;-68
2023/12/28 10:56:33;;;;;;;15.50;2.85;;;11.20;99.90;;;;;;5103054;27;20482;-68
2023/12/28 10:59:05;;;;;;;19.50;3.70;;;11.10;99.90;;;;;;5101805;27;20560;-68
2023/12/28 11:01:35;;;;;;;11.85;2.72;;;11.10;99.90;;;;;;5139115;27;20051;-69
2023/12/28 11:04:09;;;;;;;14.25;3.65;;;11.10;99.90;;;;;;5104737;27;20200;-68
2023/12/28 11:06:37;;;;;;;14.57;2.80;;;11.30;99.90;;;;;;5121675;27;20043;-68
2023/12/28 11:09:07;;;;;;;19.05;2.58;;;11.50;99.90;;;;;;5101295;27;20082;-68
2023/12/28 11:11:33;;;;;;;17.35;2.92;;;11.20;99.90;;;;;;5105172;27;20522;-68
2023/12/28 11:14:00;;;;;;;15.82;2.50;;;11.20;99.90;;;;;;5100045;27;20044;-67
2023/12/28 11:16:27;;;;;;;14.15;4.05;;;11.20;99.90;;;;;;5101771;28;20090;-68
2023/12/28 11:18:54;;;;;;;19.25;3.00;;;11.20;99.90;;;;;;5105737;27;20040;-68
2023/12/28 11:21:21;;;;;;;21.52;4.07;;;11.20;99.90;;;;;;5100495;28;20080;-68
2023/12/28 11:23:48;;;;;;;16.67;2.83;;;11.20;99.90;;;;;;5106297;27;20038;-68
2023/12/28 11:26:21;;;;;;;15.95;4.15;;;11.20;99.90;;;;;;5102164;27;20027;-68
2023/12/28 11:28:47;;;;;;;19.45;3.08;;;11.20;99.90;;;;;;5102294;27;20096;-68
2023/12/28 11:31:17;;;;;;;10.98;3.20;;;11.10;99.90;;;;;;5103012;27;20085;-68
2023/12/28 11:33:47;;;;;;;13.75;3.03;;;11.10;99.90;;;;;;5100634;27;20555;-68
2023/12/28 11:36:23;;;;;;;13.45;3.55;;;11.10;99.90;;;;;;5102713;27;20039;-68
2023/12/28 11:38:58;;;;;;;13.30;3.25;;;11.10;99.90;;;;;;5100213;27;20042;-68
2023/12/28 11:41:26;;;;;;;10.98;2.83;;;11.10;99.90;;;;;;5104007;27;20112;-68
2023/12/28 11:43:55;;;;;;;15.85;3.35;;;11.10;99.90;;;;;;5100889;27;20118;-68
2023/12/28 11:46:22;;;;;;;17.48;3.20;;;11.10;99.90;;;;;;5102683;28;20082;-68
2023/12/28 11:48:49;;;;;;;19.92;3.72;;;11.10;99.90;;;;;;5107154;27;20040;-68
2023/12/28 11:51:14;;;;;;;18.63;4.55;;;11.10;99.90;;;;;;5103247;27;20051;-68
2023/12/28 11:53:43;;;;;;;16.80;2.90;;;11.10;99.90;;;;;;5137021;27;20039;-68
2023/12/28 11:56:10;;;;;;;16.27;3.63;;;11.20;99.90;;;;;;5118773;27;20044;-68
2023/12/28 11:58:36;;;;;;;15.60;2.90;;;11.10;99.90;;;;;;5105507;27;20123;-68
2023/12/28 12:01:02;;;;;;;16.52;2.92;;;11.10;99.90;;;;;;5135003;27;20162;-68
2023/12/28 12:03:29;;;;;;;15.77;3.22;;;11.20;99.90;;;;;;5104018;27;20036;-68
2023/12/28 12:05:57;;;;;;;19.48;3.17;;;11.10;99.90;;;;;;5101834;27;20118;-68
2023/12/28 12:08:23;;;;;;;18.33;3.88;;;11.20;99.90;;;;;;5101647;28;20056;-68
2023/12/28 12:10:59;;;;;;;16.10;2.83;;;11.20;99.90;;;;;;5103482;27;20040;-68
2023/12/28 12:13:25;;;;;;;16.92;3.28;;;11.20;99.90;;;;;;5106191;27;20044;-68
2023/12/28 12:15:51;;;;;;;21.77;3.88;;;11.20;99.90;;;;;;5103955;27;20039;-68
2023/12/28 12:18:17;;;;;;;20.63;3.50;;;11.10;99.90;;;;;;5136294;27;20474;-68
2023/12/28 12:20:42;;;;;;;16.02;3.60;;;11.20;99.90;;;;;;5126542;27;20140;-68
2023/12/28 12:23:08;;;;;;;25.45;3.83;;;11.10;99.90;;;;;;5102685;27;20389;-68
2023/12/28 12:25:34;;;;;;;21.52;4.20;;;11.10;99.90;;;;;;5140668;27;20098;-68
2023/12/28 12:27:59;;;;;;;18.83;3.65;;;11.10;99.90;;;;;;5103411;28;20089;-68
2023/12/28 12:30:25;;;;;;;16.55;3.58;;;11.10;99.90;;;;;;5104707;27;20111;-67
2023/12/28 12:32:51;;;;;;;19.13;4.07;;;11.10;99.90;;;;;;5105657;27;20127;-68
2023/12/28 12:35:17;;;;;;;12.65;2.55;;;11.30;99.90;;;;;;5102101;27;20065;-68
2023/12/28 12:37:44;;;;;;;19.02;4.13;;;11.20;99.90;;;;;;5104045;27;20088;-68
2023/12/28 12:40:10;;;;;;;20.35;3.53;;;11.60;99.90;;;;;;5101857;27;20118;-68